sensor_id;sensor_type;location;lat;lon;timestamp;temperature;humidity
34492;DHT22;20737;49.908;8.126;2022-08-19T00:02:16;20.70;99.90
34492;DHT22;20737;49.908;8.126;2022-08-19T00:04:43;20.70;99.90
34492;DHT22;20737;49.908;8.126;2022-08-19T00:07:12;20.70;99.90
34492;DHT22;20737;49.908;8.126;2022-08-19T00:09:40;20.70;99.90
34492;DHT22;20737;49.908;8.126;2022-08-19T00:12:07;20.80;99.90
34492;DHT22;20737;49.908;8.126;2022-08-19T00:14:34;20.80;99.90
34492;DHT22;20737;49.908;8.126;2022-08-19T00:17:01;20.90;99.90
34492;DHT22;20737;49.908;8.126;2022-08-19T00:19:29;20.80;99.90
34492;DHT22;20737;49.908;8.126;2022-08-19T00:21:56;20.80;99.90
34492;DHT22;20737;49.908;8.126;2022-08-19T00:24:23;20.80;99.90
34492;DHT22;20737;49.908;8.126;2022-08-19T00:26:52;20.80;99.90
34492;DHT22;20737;49.908;8.126;2022-08-19T00:29:20;20.80;99.90
34492;DHT22;20737;49.908;8.126;2022-08-19T00:31:47;20.70;99.90
34492;DHT22;20737;49.908;8.126;2022-08-19T00:34:15;20.70;99.90
34492;DHT22;20737;49.908;8.126;2022-08-19T00:36:43;20.70;99.90
34492;DHT22;20737;49.908;8.126;2022-08-19T00:39:10;20.70;99.90
34492;DHT22;20737;49.908;8.126;2022-08-19T00:41:38;20.70;99.90
34492;DHT22;20737;49.908;8.126;2022-08-19T00:44:08;20.70;99.90
34492;DHT22;20737;49.908;8.126;2022-08-19T00:46:39;20.70;99.90
34492;DHT22;20737;49.908;8.126;2022-08-19T00:49:11;20.80;99.90
34492;DHT22;20737;49.908;8.126;2022-08-19T00:51:41;20.80;99.90
34492;DHT22;20737;49.908;8.126;2022-08-19T00:54:09;20.70;99.90
34492;DHT22;20737;49.908;8.126;2022-08-19T00:56:37;20.70;99.90
34492;DHT22;20737;49.908;8.126;2022-08-19T00:59:06;20.70;99.90
34492;DHT22;20737;49.908;8.126;2022-08-19T01:01:34;20.70;99.90
34492;DHT22;20737;49.908;8.126;2022-08-19T01:04:01;20.80;99.90
34492;DHT22;20737;49.908;8.126;2022-08-19T01:06:28;20.80;99.90
34492;DHT22;20737;49.908;8.126;2022-08-19T01:08:58;20.80;99.90
34492;DHT22;20737;49.908;8.126;2022-08-19T01:11:26;20.80;99.90
34492;DHT22;20737;49.908;8.126;2022-08-19T01:13:54;20.80;99.90
34492;DHT22;20737;49.908;8.126;2022-08-19T01:16:24;20.80;99.90
34492;DHT22;20737;49.908;8.126;2022-08-19T01:18:51;20.70;99.90
34492;DHT22;20737;49.908;8.126;2022-08-19T01:21:25;20.70;99.90
34492;DHT22;20737;49.908;8.126;2022-08-19T01:23:54;20.70;99.90
34492;DHT22;20737;49.908;8.126;2022-08-19T01:26:23;20.70;99.90
34492;DHT22;20737;49.908;8.126;2022-08-19T01:28:51;20.70;99.90
34492;DHT22;20737;49.908;8.126;2022-08-19T01:31:21;20.70;99.90
34492;DHT22;20737;49.908;8.126;2022-08-19T01:33:49;20.60;99.90
34492;DHT22;20737;49.908;8.126;2022-08-19T01:36:23;20.60;99.90
34492;DHT22;20737;49.908;8.126;2022-08-19T01:38:51;20.60;99.90
34492;DHT22;20737;49.908;8.126;2022-08-19T01:41:19;20.60;99.90
34492;DHT22;20737;49.908;8.126;2022-08-19T01:43:49;20.60;99.90
34492;DHT22;20737;49.908;8.126;2022-08-19T01:46:16;20.60;99.90
34492;DHT22;20737;49.908;8.126;2022-08-19T01:48:45;20.60;99.90
34492;DHT22;20737;49.908;8.126;2022-08-19T01:51:13;20.60;99.90
34492;DHT22;20737;49.908;8.126;2022-08-19T01:53:40;20.60;99.90
34492;DHT22;20737;49.908;8.126;2022-08-19T01:56:08;20.60;99.90
34492;DHT22;20737;49.908;8.126;2022-08-19T01:58:43;20.60;99.90
34492;DHT22;20737;49.908;8.126;2022-08-19T02:01:14;20.50;99.90
34492;DHT22;20737;49.908;8.126;2022-08-19T02:03:41;20.50;99.90
34492;DHT22;20737;49.908;8.126;2022-08-19T02:06:08;20.60;99.90
34492;DHT22;20737;49.908;8.126;2022-08-19T02:08:37;20.50;99.90
34492;DHT22;20737;49.908;8.126;2022-08-19T02:11:04;20.60;99.90
34492;DHT22;20737;49.908;8.126;2022-08-19T02:13:32;20.50;99.90
34492;DHT22;20737;49.908;8.126;2022-08-19T02:16:00;20.50;99.90
34492;DHT22;20737;49.908;8.126;2022-08-19T02:18:27;20.50;99.90
34492;DHT22;20737;49.908;8.126;2022-08-19T02:20:54;20.50;99.90
34492;DHT22;20737;49.908;8.126;2022-08-19T02:23:21;20.50;99.90
34492;DHT22;20737;49.908;8.126;2022-08-19T02:25:48;20.50;99.90
34492;DHT22;20737;49.908;8.126;2022-08-19T02:28:15;20.50;99.90
34492;DHT22;20737;49.908;8.126;2022-08-19T02:30:42;20.60;99.90
34492;DHT22;20737;49.908;8.126;2022-08-19T02:33:11;20.50;99.90
34492;DHT22;20737;49.908;8.126;2022-08-19T02:35:41;20.60;99.90
34492;DHT22;20737;49.908;8.126;2022-08-19T02:38:08;20.60;99.90
34492;DHT22;20737;49.908;8.126;2022-08-19T02:40:55;20.50;99.90
34492;DHT22;20737;49.908;8.126;2022-08-19T02:43:25;20.60;99.90
34492;DHT22;20737;49.908;8.126;2022-08-19T02:45:53;20.60;99.90
34492;DHT22;20737;49.908;8.126;2022-08-19T02:48:23;20.60;99.90
34492;DHT22;20737;49.908;8.126;2022-08-19T02:50:52;20.60;99.90
34492;DHT22;20737;49.908;8.126;2022-08-19T02:53:21;20.70;99.90
34492;DHT22;20737;49.908;8.126;2022-08-19T02:55:49;20.70;99.90
34492;DHT22;20737;49.908;8.126;2022-08-19T02:58:18;20.60;99.90
34492;DHT22;20737;49.908;8.126;2022-08-19T03:00:48;20.60;99.90
34492;DHT22;20737;49.908;8.126;2022-08-19T03:03:16;20.60;99.90
34492;DHT22;20737;49.908;8.126;2022-08-19T03:05:44;20.50;99.90
34492;DHT22;20737;49.908;8.126;2022-08-19T03:08:12;20.50;99.90
34492;DHT22;20737;49.908;8.126;2022-08-19T03:10:44;20.50;99.90
34492;DHT22;20737;49.908;8.126;2022-08-19T03:13:13;20.40;99.90
34492;DHT22;20737;49.908;8.126;2022-08-19T03:15:42;20.40;99.90
34492;DHT22;20737;49.908;8.126;2022-08-19T03:18:10;20.40;99.90
34492;DHT22;20737;49.908;8.126;2022-08-19T03:20:41;20.30;99.90
34492;DHT22;20737;49.908;8.126;2022-08-19T03:23:10;20.20;99.90
34492;DHT22;20737;49.908;8.126;2022-08-19T03:25:40;20.20;99.90
34492;DHT22;20737;49.908;8.126;2022-08-19T03:28:09;20.20;99.90
34492;DHT22;20737;49.908;8.126;2022-08-19T03:30:35;20.10;99.90
34492;DHT22;20737;49.908;8.126;2022-08-19T03:33:02;20.10;99.90
34492;DHT22;20737;49.908;8.126;2022-08-19T03:35:29;20.10;99.90
34492;DHT22;20737;49.908;8.126;2022-08-19T03:37:57;20.00;99.90
34492;DHT22;20737;49.908;8.126;2022-08-19T03:40:26;20.00;99.90
34492;DHT22;20737;49.908;8.126;2022-08-19T03:42:52;19.90;99.90
34492;DHT22;20737;49.908;8.126;2022-08-19T03:45:19;19.90;99.90
34492;DHT22;20737;49.908;8.126;2022-08-19T03:47:46;19.80;99.90
34492;DHT22;20737;49.908;8.126;2022-08-19T03:50:13;19.70;99.90
34492;DHT22;20737;49.908;8.126;2022-08-19T03:52:40;19.70;99.90
34492;DHT22;20737;49.908;8.126;2022-08-19T03:55:07;19.70;99.90
34492;DHT22;20737;49.908;8.126;2022-08-19T03:57:35;19.70;99.90
34492;DHT22;20737;49.908;8.126;2022-08-19T04:00:04;19.60;99.90
34492;DHT22;20737;49.908;8.126;2022-08-19T04:02:32;19.60;99.90
34492;DHT22;20737;49.908;8.126;2022-08-19T04:04:59;19.60;99.90
34492;DHT22;20737;49.908;8.126;2022-08-19T04:07:25;19.50;99.90
34492;DHT22;20737;49.908;8.126;2022-08-19T04:09:52;19.50;99.90
34492;DHT22;20737;49.908;8.126;2022-08-19T04:12:19;19.50;99.90
34492;DHT22;20737;49.908;8.126;2022-08-19T04:14:47;19.40;99.90
34492;DHT22;20737;49.908;8.126;2022-08-19T04:17:14;19.40;99.90
34492;DHT22;20737;49.908;8.126;2022-08-19T04:19:41;19.50;99.90
34492;DHT22;20737;49.908;8.126;2022-08-19T04:22:08;19.40;99.90
34492;DHT22;20737;49.908;8.126;2022-08-19T04:24:36;19.40;99.90
34492;DHT22;20737;49.908;8.126;2022-08-19T04:27:03;19.40;99.90
34492;DHT22;20737;49.908;8.126;2022-08-19T04:29:30;19.40;99.90
34492;DHT22;20737;49.908;8.126;2022-08-19T04:31:59;19.30;99.90
34492;DHT22;20737;49.908;8.126;2022-08-19T04:34:28;19.30;99.90
34492;DHT22;20737;49.908;8.126;2022-08-19T04:36:56;19.30;99.90
34492;DHT22;20737;49.908;8.126;2022-08-19T04:39:26;19.30;99.90
34492;DHT22;20737;49.908;8.126;2022-08-19T04:42:15;19.30;99.90
34492;DHT22;20737;49.908;8.126;2022-08-19T04:45:00;19.30;99.90
34492;DHT22;20737;49.908;8.126;2022-08-19T04:47:30;19.20;99.90
34492;DHT22;20737;49.908;8.126;2022-08-19T04:49:58;19.20;99.90
34492;DHT22;20737;49.908;8.126;2022-08-19T04:52:25;19.20;99.90
34492;DHT22;20737;49.908;8.126;2022-08-19T04:54:52;19.20;99.90
34492;DHT22;20737;49.908;8.126;2022-08-19T04:57:20;19.20;99.90
34492;DHT22;20737;49.908;8.126;2022-08-19T04:59:48;19.20;99.90
34492;DHT22;20737;49.908;8.126;2022-08-19T05:02:14;19.30;99.90
34492;DHT22;20737;49.908;8.126;2022-08-19T05:04:42;19.30;99.90
34492;DHT22;20737;49.908;8.126;2022-08-19T05:07:09;19.30;99.90
34492;DHT22;20737;49.908;8.126;2022-08-19T05:09:37;19.40;99.90
34492;DHT22;20737;49.908;8.126;2022-08-19T05:12:04;19.50;99.90
34492;DHT22;20737;49.908;8.126;2022-08-19T05:14:32;19.50;99.90
34492;DHT22;20737;49.908;8.126;2022-08-19T05:17:00;19.50;99.90
34492;DHT22;20737;49.908;8.126;2022-08-19T05:19:27;19.60;99.90
34492;DHT22;20737;49.908;8.126;2022-08-19T05:22:12;19.60;99.90
34492;DHT22;20737;49.908;8.126;2022-08-19T05:24:56;19.70;99.90
34492;DHT22;20737;49.908;8.126;2022-08-19T05:27:23;19.80;99.90
34492;DHT22;20737;49.908;8.126;2022-08-19T05:29:50;19.90;99.90
34492;DHT22;20737;49.908;8.126;2022-08-19T05:32:16;20.00;99.90
34492;DHT22;20737;49.908;8.126;2022-08-19T05:34:43;20.00;99.90
34492;DHT22;20737;49.908;8.126;2022-08-19T05:37:10;20.20;99.90
34492;DHT22;20737;49.908;8.126;2022-08-19T05:39:39;20.30;99.90
34492;DHT22;20737;49.908;8.126;2022-08-19T05:42:07;20.40;99.90
34492;DHT22;20737;49.908;8.126;2022-08-19T05:44:37;20.50;99.90
34492;DHT22;20737;49.908;8.126;2022-08-19T05:47:06;20.60;99.90
34492;DHT22;20737;49.908;8.126;2022-08-19T05:49:35;20.60;99.90
34492;DHT22;20737;49.908;8.126;2022-08-19T05:52:03;20.60;99.90
34492;DHT22;20737;49.908;8.126;2022-08-19T05:54:31;20.60;99.90
34492;DHT22;20737;49.908;8.126;2022-08-19T05:57:00;20.70;99.90
34492;DHT22;20737;49.908;8.126;2022-08-19T05:59:28;20.80;99.90
34492;DHT22;20737;49.908;8.126;2022-08-19T06:01:55;20.90;99.90
34492;DHT22;20737;49.908;8.126;2022-08-19T06:04:22;21.00;99.90
34492;DHT22;20737;49.908;8.126;2022-08-19T06:06:51;21.10;99.90
34492;DHT22;20737;49.908;8.126;2022-08-19T06:09:19;21.20;99.90
34492;DHT22;20737;49.908;8.126;2022-08-19T06:11:48;21.20;99.90
34492;DHT22;20737;49.908;8.126;2022-08-19T06:14:22;21.20;99.90
34492;DHT22;20737;49.908;8.126;2022-08-19T06:16:50;21.30;99.90
34492;DHT22;20737;49.908;8.126;2022-08-19T06:19:19;21.40;99.90
34492;DHT22;20737;49.908;8.126;2022-08-19T06:21:48;21.40;99.90
34492;DHT22;20737;49.908;8.126;2022-08-19T06:24:17;21.60;99.90
34492;DHT22;20737;49.908;8.126;2022-08-19T06:26:47;21.70;99.90
34492;DHT22;20737;49.908;8.126;2022-08-19T06:29:16;22.00;99.90
34492;DHT22;20737;49.908;8.126;2022-08-19T06:31:47;22.10;99.90
34492;DHT22;20737;49.908;8.126;2022-08-19T06:34:16;22.40;99.90
34492;DHT22;20737;49.908;8.126;2022-08-19T06:36:44;22.70;99.90
34492;DHT22;20737;49.908;8.126;2022-08-19T06:39:14;23.10;99.90
34492;DHT22;20737;49.908;8.126;2022-08-19T06:41:43;23.60;99.90
34492;DHT22;20737;49.908;8.126;2022-08-19T06:44:11;24.30;99.90
34492;DHT22;20737;49.908;8.126;2022-08-19T06:46:39;24.90;99.90
34492;DHT22;20737;49.908;8.126;2022-08-19T06:49:08;25.30;99.90
34492;DHT22;20737;49.908;8.126;2022-08-19T06:51:40;25.60;99.90
34492;DHT22;20737;49.908;8.126;2022-08-19T06:54:07;25.50;99.90
34492;DHT22;20737;49.908;8.126;2022-08-19T06:56:34;25.70;99.90
34492;DHT22;20737;49.908;8.126;2022-08-19T06:59:02;26.30;99.90
34492;DHT22;20737;49.908;8.126;2022-08-19T07:01:36;26.20;99.90
34492;DHT22;20737;49.908;8.126;2022-08-19T07:04:04;26.40;99.90
34492;DHT22;20737;49.908;8.126;2022-08-19T07:06:36;27.00;99.90
34492;DHT22;20737;49.908;8.126;2022-08-19T07:09:03;27.50;99.90
34492;DHT22;20737;49.908;8.126;2022-08-19T07:11:30;27.50;99.90
34492;DHT22;20737;49.908;8.126;2022-08-19T07:13:58;27.80;99.90
34492;DHT22;20737;49.908;8.126;2022-08-19T07:16:25;27.50;99.90
34492;DHT22;20737;49.908;8.126;2022-08-19T07:18:53;27.70;99.90
34492;DHT22;20737;49.908;8.126;2022-08-19T07:21:22;27.90;99.70
34492;DHT22;20737;49.908;8.126;2022-08-19T07:23:55;28.10;99.50
34492;DHT22;20737;49.908;8.126;2022-08-19T07:26:26;27.80;99.90
34492;DHT22;20737;49.908;8.126;2022-08-19T07:28:53;28.10;99.90
34492;DHT22;20737;49.908;8.126;2022-08-19T07:31:22;28.70;97.80
34492;DHT22;20737;49.908;8.126;2022-08-19T07:33:52;29.20;97.40
34492;DHT22;20737;49.908;8.126;2022-08-19T07:36:22;29.80;94.90
34492;DHT22;20737;49.908;8.126;2022-08-19T07:38:51;29.50;94.60
34492;DHT22;20737;49.908;8.126;2022-08-19T07:41:22;29.60;94.40
34492;DHT22;20737;49.908;8.126;2022-08-19T07:43:50;29.80;94.10
34492;DHT22;20737;49.908;8.126;2022-08-19T07:46:19;29.80;93.10
34492;DHT22;20737;49.908;8.126;2022-08-19T07:48:50;29.80;93.30
34492;DHT22;20737;49.908;8.126;2022-08-19T07:51:20;28.80;94.00
34492;DHT22;20737;49.908;8.126;2022-08-19T07:53:48;28.60;94.70
34492;DHT22;20737;49.908;8.126;2022-08-19T07:56:17;29.10;95.80
34492;DHT22;20737;49.908;8.126;2022-08-19T07:58:47;29.70;93.70
34492;DHT22;20737;49.908;8.126;2022-08-19T08:01:17;30.30;92.00
34492;DHT22;20737;49.908;8.126;2022-08-19T08:03:44;31.00;90.50
34492;DHT22;20737;49.908;8.126;2022-08-19T08:06:29;31.10;90.30
34492;DHT22;20737;49.908;8.126;2022-08-19T08:09:15;31.40;87.80
34492;DHT22;20737;49.908;8.126;2022-08-19T08:11:50;31.40;85.50
34492;DHT22;20737;49.908;8.126;2022-08-19T08:14:22;30.50;88.30
34492;DHT22;20737;49.908;8.126;2022-08-19T08:16:49;29.70;90.30
34492;DHT22;20737;49.908;8.126;2022-08-19T08:19:20;28.50;92.30
34492;DHT22;20737;49.908;8.126;2022-08-19T08:21:48;27.50;95.30
34492;DHT22;20737;49.908;8.126;2022-08-19T08:24:15;26.80;97.10
34492;DHT22;20737;49.908;8.126;2022-08-19T08:26:42;27.00;99.00
34492;DHT22;20737;49.908;8.126;2022-08-19T08:29:10;27.50;97.60
34492;DHT22;20737;49.908;8.126;2022-08-19T08:31:41;27.50;97.00
34492;DHT22;20737;49.908;8.126;2022-08-19T08:34:08;27.00;97.70
34492;DHT22;20737;49.908;8.126;2022-08-19T08:36:37;26.70;98.90
34492;DHT22;20737;49.908;8.126;2022-08-19T08:39:07;26.30;99.90
34492;DHT22;20737;49.908;8.126;2022-08-19T08:41:40;26.90;99.50
34492;DHT22;20737;49.908;8.126;2022-08-19T08:44:22;27.80;97.20
34492;DHT22;20737;49.908;8.126;2022-08-19T08:46:53;28.30;96.20
34492;DHT22;20737;49.908;8.126;2022-08-19T08:49:29;28.60;95.90
34492;DHT22;20737;49.908;8.126;2022-08-19T08:52:00;29.00;94.30
34492;DHT22;20737;49.908;8.126;2022-08-19T08:54:33;29.40;93.30
34492;DHT22;20737;49.908;8.126;2022-08-19T08:57:01;29.80;92.30
34492;DHT22;20737;49.908;8.126;2022-08-19T08:59:31;30.60;91.50
34492;DHT22;20737;49.908;8.126;2022-08-19T09:02:01;31.60;90.40
34492;DHT22;20737;49.908;8.126;2022-08-19T09:04:28;32.60;83.20
34492;DHT22;20737;49.908;8.126;2022-08-19T09:07:08;33.50;77.70
34492;DHT22;20737;49.908;8.126;2022-08-19T09:09:41;34.70;72.00
34492;DHT22;20737;49.908;8.126;2022-08-19T09:12:16;34.90;67.30
34492;DHT22;20737;49.908;8.126;2022-08-19T09:14:49;35.30;64.20
34492;DHT22;20737;49.908;8.126;2022-08-19T09:17:21;35.00;64.40
34492;DHT22;20737;49.908;8.126;2022-08-19T09:19:59;35.10;62.60
34492;DHT22;20737;49.908;8.126;2022-08-19T09:22:30;34.70;60.10
34492;DHT22;20737;49.908;8.126;2022-08-19T09:24:57;33.90;63.60
34492;DHT22;20737;49.908;8.126;2022-08-19T09:27:25;34.50;62.80
34492;DHT22;20737;49.908;8.126;2022-08-19T09:29:53;35.80;60.20
34492;DHT22;20737;49.908;8.126;2022-08-19T09:32:22;36.50;57.50
34492;DHT22;20737;49.908;8.126;2022-08-19T09:34:49;37.60;55.30
34492;DHT22;20737;49.908;8.126;2022-08-19T09:37:19;37.60;54.40
34492;DHT22;20737;49.908;8.126;2022-08-19T09:39:47;37.10;52.00
34492;DHT22;20737;49.908;8.126;2022-08-19T09:42:13;36.90;51.70
34492;DHT22;20737;49.908;8.126;2022-08-19T09:44:41;36.40;53.40
34492;DHT22;20737;49.908;8.126;2022-08-19T09:47:09;36.10;54.30
34492;DHT22;20737;49.908;8.126;2022-08-19T09:49:38;36.10;52.70
34492;DHT22;20737;49.908;8.126;2022-08-19T09:52:06;36.30;53.10
34492;DHT22;20737;49.908;8.126;2022-08-19T09:54:33;37.20;52.60
34492;DHT22;20737;49.908;8.126;2022-08-19T09:57:00;37.10;47.50
34492;DHT22;20737;49.908;8.126;2022-08-19T09:59:28;36.30;48.70
34492;DHT22;20737;49.908;8.126;2022-08-19T10:01:55;37.10;48.60
34492;DHT22;20737;49.908;8.126;2022-08-19T10:04:22;36.40;48.60
34492;DHT22;20737;49.908;8.126;2022-08-19T10:07:10;36.70;51.70
34492;DHT22;20737;49.908;8.126;2022-08-19T10:09:37;37.80;47.60
34492;DHT22;20737;49.908;8.126;2022-08-19T10:12:04;37.60;46.80
34492;DHT22;20737;49.908;8.126;2022-08-19T10:14:31;36.70;49.40
34492;DHT22;20737;49.908;8.126;2022-08-19T10:16:58;36.30;47.50
34492;DHT22;20737;49.908;8.126;2022-08-19T10:19:25;36.30;48.50
34492;DHT22;20737;49.908;8.126;2022-08-19T10:21:53;36.50;49.00
34492;DHT22;20737;49.908;8.126;2022-08-19T10:24:22;36.40;47.20
34492;DHT22;20737;49.908;8.126;2022-08-19T10:26:49;35.60;48.10
34492;DHT22;20737;49.908;8.126;2022-08-19T10:29:16;36.20;48.70
34492;DHT22;20737;49.908;8.126;2022-08-19T10:31:43;35.90;45.60
34492;DHT22;20737;49.908;8.126;2022-08-19T10:34:10;36.00;46.20
34492;DHT22;20737;49.908;8.126;2022-08-19T10:36:37;35.30;46.10
34492;DHT22;20737;49.908;8.126;2022-08-19T10:39:06;35.30;46.60
34492;DHT22;20737;49.908;8.126;2022-08-19T10:41:37;35.80;45.90
34492;DHT22;20737;49.908;8.126;2022-08-19T10:44:05;36.10;46.20
34492;DHT22;20737;49.908;8.126;2022-08-19T10:46:35;35.80;46.10
34492;DHT22;20737;49.908;8.126;2022-08-19T10:49:04;36.50;45.10
34492;DHT22;20737;49.908;8.126;2022-08-19T10:51:32;36.00;43.60
34492;DHT22;20737;49.908;8.126;2022-08-19T10:54:17;34.70;45.90
34492;DHT22;20737;49.908;8.126;2022-08-19T10:56:45;34.40;47.10
34492;DHT22;20737;49.908;8.126;2022-08-19T10:59:19;34.70;47.10
34492;DHT22;20737;49.908;8.126;2022-08-19T11:01:47;34.80;46.50
34492;DHT22;20737;49.908;8.126;2022-08-19T11:04:14;34.90;45.70
34492;DHT22;20737;49.908;8.126;2022-08-19T11:06:43;34.50;46.80
34492;DHT22;20737;49.908;8.126;2022-08-19T11:09:12;34.80;46.30
34492;DHT22;20737;49.908;8.126;2022-08-19T11:11:39;35.00;46.00
34492;DHT22;20737;49.908;8.126;2022-08-19T11:14:08;34.90;46.30
34492;DHT22;20737;49.908;8.126;2022-08-19T11:16:36;35.20;47.00
34492;DHT22;20737;49.908;8.126;2022-08-19T11:19:03;35.10;45.50
34492;DHT22;20737;49.908;8.126;2022-08-19T11:21:31;34.50;47.40
34492;DHT22;20737;49.908;8.126;2022-08-19T11:24:02;34.00;47.80
34492;DHT22;20737;49.908;8.126;2022-08-19T11:26:30;34.40;47.50
34492;DHT22;20737;49.908;8.126;2022-08-19T11:28:57;34.50;48.40
34492;DHT22;20737;49.908;8.126;2022-08-19T11:31:29;35.00;46.20
34492;DHT22;20737;49.908;8.126;2022-08-19T11:33:57;35.30;46.00
34492;DHT22;20737;49.908;8.126;2022-08-19T11:36:25;35.40;46.40
34492;DHT22;20737;49.908;8.126;2022-08-19T11:38:52;35.30;46.10
34492;DHT22;20737;49.908;8.126;2022-08-19T11:41:21;35.30;46.50
34492;DHT22;20737;49.908;8.126;2022-08-19T11:43:49;35.40;47.10
34492;DHT22;20737;49.908;8.126;2022-08-19T11:46:19;34.50;46.70
34492;DHT22;20737;49.908;8.126;2022-08-19T11:48:47;33.50;48.80
34492;DHT22;20737;49.908;8.126;2022-08-19T11:51:17;33.10;49.40
34492;DHT22;20737;49.908;8.126;2022-08-19T11:53:45;32.40;51.70
34492;DHT22;20737;49.908;8.126;2022-08-19T11:56:12;32.70;52.40
34492;DHT22;20737;49.908;8.126;2022-08-19T11:58:40;32.70;50.60
34492;DHT22;20737;49.908;8.126;2022-08-19T12:01:08;32.30;51.80
34492;DHT22;20737;49.908;8.126;2022-08-19T12:03:36;32.00;51.40
34492;DHT22;20737;49.908;8.126;2022-08-19T12:06:06;31.80;52.60
34492;DHT22;20737;49.908;8.126;2022-08-19T12:08:36;31.70;53.00
34492;DHT22;20737;49.908;8.126;2022-08-19T12:11:03;31.40;53.50
34492;DHT22;20737;49.908;8.126;2022-08-19T12:13:33;31.30;54.10
34492;DHT22;20737;49.908;8.126;2022-08-19T12:16:01;31.40;53.50
34492;DHT22;20737;49.908;8.126;2022-08-19T12:18:33;31.10;52.90
34492;DHT22;20737;49.908;8.126;2022-08-19T12:21:00;31.00;54.00
34492;DHT22;20737;49.908;8.126;2022-08-19T12:23:28;31.30;51.20
34492;DHT22;20737;49.908;8.126;2022-08-19T12:25:55;31.10;51.90
34492;DHT22;20737;49.908;8.126;2022-08-19T12:28:24;30.60;52.40
34492;DHT22;20737;49.908;8.126;2022-08-19T12:30:51;30.50;52.80
34492;DHT22;20737;49.908;8.126;2022-08-19T12:33:19;30.70;52.20
34492;DHT22;20737;49.908;8.126;2022-08-19T12:35:49;30.90;52.50
34492;DHT22;20737;49.908;8.126;2022-08-19T12:38:16;31.10;52.50
34492;DHT22;20737;49.908;8.126;2022-08-19T12:40:47;31.00;50.80
34492;DHT22;20737;49.908;8.126;2022-08-19T12:43:14;31.10;49.60
34492;DHT22;20737;49.908;8.126;2022-08-19T12:45:42;31.10;50.50
34492;DHT22;20737;49.908;8.126;2022-08-19T12:48:09;31.20;49.90
34492;DHT22;20737;49.908;8.126;2022-08-19T12:50:38;31.20;49.90
34492;DHT22;20737;49.908;8.126;2022-08-19T12:53:05;31.20;50.50
34492;DHT22;20737;49.908;8.126;2022-08-19T12:55:32;31.10;50.50
34492;DHT22;20737;49.908;8.126;2022-08-19T12:58:00;31.20;49.50
34492;DHT22;20737;49.908;8.126;2022-08-19T13:00:28;31.10;49.80
34492;DHT22;20737;49.908;8.126;2022-08-19T13:02:56;31.30;49.70
34492;DHT22;20737;49.908;8.126;2022-08-19T13:05:26;31.10;48.90
34492;DHT22;20737;49.908;8.126;2022-08-19T13:07:55;31.10;47.70
34492;DHT22;20737;49.908;8.126;2022-08-19T13:10:24;31.00;48.70
34492;DHT22;20737;49.908;8.126;2022-08-19T13:12:52;31.00;49.40
34492;DHT22;20737;49.908;8.126;2022-08-19T13:15:21;31.00;49.90
34492;DHT22;20737;49.908;8.126;2022-08-19T13:17:50;31.10;52.50
34492;DHT22;20737;49.908;8.126;2022-08-19T13:20:19;31.60;50.60
34492;DHT22;20737;49.908;8.126;2022-08-19T13:22:46;31.90;49.00
34492;DHT22;20737;49.908;8.126;2022-08-19T13:25:14;32.20;49.50
34492;DHT22;20737;49.908;8.126;2022-08-19T13:27:43;31.70;49.10
34492;DHT22;20737;49.908;8.126;2022-08-19T13:30:11;31.70;49.10
34492;DHT22;20737;49.908;8.126;2022-08-19T13:33:12;31.60;49.80
34492;DHT22;20737;49.908;8.126;2022-08-19T13:35:41;31.00;49.80
34492;DHT22;20737;49.908;8.126;2022-08-19T13:38:08;30.50;48.80
34492;DHT22;20737;49.908;8.126;2022-08-19T13:40:35;30.50;50.40
34492;DHT22;20737;49.908;8.126;2022-08-19T13:43:03;30.80;49.80
34492;DHT22;20737;49.908;8.126;2022-08-19T13:45:32;31.10;50.40
34492;DHT22;20737;49.908;8.126;2022-08-19T13:48:00;31.00;51.20
34492;DHT22;20737;49.908;8.126;2022-08-19T13:50:33;31.00;50.90
34492;DHT22;20737;49.908;8.126;2022-08-19T13:53:02;31.00;51.20
34492;DHT22;20737;49.908;8.126;2022-08-19T13:55:30;31.50;52.20
34492;DHT22;20737;49.908;8.126;2022-08-19T13:57:59;31.80;50.20
34492;DHT22;20737;49.908;8.126;2022-08-19T14:00:28;31.70;48.80
34492;DHT22;20737;49.908;8.126;2022-08-19T14:02:56;31.30;48.90
34492;DHT22;20737;49.908;8.126;2022-08-19T14:05:25;31.00;50.80
34492;DHT22;20737;49.908;8.126;2022-08-19T14:07:54;31.20;51.30
34492;DHT22;20737;49.908;8.126;2022-08-19T14:10:22;31.30;51.90
34492;DHT22;20737;49.908;8.126;2022-08-19T14:12:49;31.50;50.80
34492;DHT22;20737;49.908;8.126;2022-08-19T14:15:18;31.70;50.20
34492;DHT22;20737;49.908;8.126;2022-08-19T14:17:45;32.00;49.10
34492;DHT22;20737;49.908;8.126;2022-08-19T14:20:15;32.10;49.20
34492;DHT22;20737;49.908;8.126;2022-08-19T14:22:43;32.30;50.20
34492;DHT22;20737;49.908;8.126;2022-08-19T14:25:14;32.60;50.50
34492;DHT22;20737;49.908;8.126;2022-08-19T14:27:42;31.80;50.30
34492;DHT22;20737;49.908;8.126;2022-08-19T14:30:12;31.60;50.70
34492;DHT22;20737;49.908;8.126;2022-08-19T14:32:39;31.60;51.60
34492;DHT22;20737;49.908;8.126;2022-08-19T14:35:10;31.70;52.10
34492;DHT22;20737;49.908;8.126;2022-08-19T14:37:38;31.90;50.70
34492;DHT22;20737;49.908;8.126;2022-08-19T14:40:06;32.00;50.90
34492;DHT22;20737;49.908;8.126;2022-08-19T14:42:36;31.80;50.50
34492;DHT22;20737;49.908;8.126;2022-08-19T14:45:04;31.70;51.70
34492;DHT22;20737;49.908;8.126;2022-08-19T14:47:31;31.80;51.30
34492;DHT22;20737;49.908;8.126;2022-08-19T14:49:58;32.10;52.00
34492;DHT22;20737;49.908;8.126;2022-08-19T14:52:25;32.40;51.30
34492;DHT22;20737;49.908;8.126;2022-08-19T14:54:52;32.30;51.80
34492;DHT22;20737;49.908;8.126;2022-08-19T14:57:19;32.30;51.90
34492;DHT22;20737;49.908;8.126;2022-08-19T14:59:48;32.10;51.70
34492;DHT22;20737;49.908;8.126;2022-08-19T15:02:15;32.10;52.80
34492;DHT22;20737;49.908;8.126;2022-08-19T15:04:44;32.00;52.30
34492;DHT22;20737;49.908;8.126;2022-08-19T15:07:11;31.90;52.10
34492;DHT22;20737;49.908;8.126;2022-08-19T15:09:38;31.70;51.50
34492;DHT22;20737;49.908;8.126;2022-08-19T15:12:05;31.20;52.70
34492;DHT22;20737;49.908;8.126;2022-08-19T15:14:36;31.00;52.50
34492;DHT22;20737;49.908;8.126;2022-08-19T15:17:05;30.80;53.00
34492;DHT22;20737;49.908;8.126;2022-08-19T15:19:32;30.50;53.40
34492;DHT22;20737;49.908;8.126;2022-08-19T15:22:01;30.60;54.60
34492;DHT22;20737;49.908;8.126;2022-08-19T15:24:28;30.50;54.20
34492;DHT22;20737;49.908;8.126;2022-08-19T15:26:55;30.40;53.90
34492;DHT22;20737;49.908;8.126;2022-08-19T15:29:24;30.60;55.50
34492;DHT22;20737;49.908;8.126;2022-08-19T15:31:53;30.50;54.00
34492;DHT22;20737;49.908;8.126;2022-08-19T15:34:24;30.40;54.50
34492;DHT22;20737;49.908;8.126;2022-08-19T15:36:51;30.30;54.70
34492;DHT22;20737;49.908;8.126;2022-08-19T15:39:18;30.20;55.10
34492;DHT22;20737;49.908;8.126;2022-08-19T15:41:46;30.30;56.40